sensor_id;sensor_type;location;lat;lon;timestamp;temperature;humidity
67161;DHT22;54088;52.238;21.104;2023-01-08T00:01:05;5.80;97.20
67161;DHT22;54088;52.238;21.104;2023-01-08T00:03:31;5.80;97.40
67161;DHT22;54088;52.238;21.104;2023-01-08T00:05:59;5.80;97.40
67161;DHT22;54088;52.238;21.104;2023-01-08T00:08:24;5.80;97.50
67161;DHT22;54088;52.238;21.104;2023-01-08T00:10:52;5.80;97.30
67161;DHT22;54088;52.238;21.104;2023-01-08T00:13:18;5.80;97.40
67161;DHT22;54088;52.238;21.104;2023-01-08T00:15:43;5.80;97.40
67161;DHT22;54088;52.238;21.104;2023-01-08T00:18:09;5.90;97.30
67161;DHT22;54088;52.238;21.104;2023-01-08T00:20:34;5.90;97.30
67161;DHT22;54088;52.238;21.104;2023-01-08T00:23:00;5.90;97.10
67161;DHT22;54088;52.238;21.104;2023-01-08T00:25:25;5.80;96.80
67161;DHT22;54088;52.238;21.104;2023-01-08T00:27:51;5.80;97.00
67161;DHT22;54088;52.238;21.104;2023-01-08T00:30:16;5.80;96.90
67161;DHT22;54088;52.238;21.104;2023-01-08T00:32:42;5.80;97.00
67161;DHT22;54088;52.238;21.104;2023-01-08T00:35:07;5.70;96.90
67161;DHT22;54088;52.238;21.104;2023-01-08T00:37:33;5.70;97.00
67161;DHT22;54088;52.238;21.104;2023-01-08T00:39:59;5.70;96.90
67161;DHT22;54088;52.238;21.104;2023-01-08T00:42:24;5.60;96.90
67161;DHT22;54088;52.238;21.104;2023-01-08T00:44:50;5.70;96.70
67161;DHT22;54088;52.238;21.104;2023-01-08T00:47:15;5.60;96.80
67161;DHT22;54088;52.238;21.104;2023-01-08T00:49:41;5.60;96.80
67161;DHT22;54088;52.238;21.104;2023-01-08T00:52:06;5.50;96.60
67161;DHT22;54088;52.238;21.104;2023-01-08T00:54:32;5.50;97.00
67161;DHT22;54088;52.238;21.104;2023-01-08T00:56:57;5.50;97.00
67161;DHT22;54088;52.238;21.104;2023-01-08T00:59:23;5.50;96.90
67161;DHT22;54088;52.238;21.104;2023-01-08T01:01:48;5.60;97.00
67161;DHT22;54088;52.238;21.104;2023-01-08T01:04:14;5.60;96.90
67161;DHT22;54088;52.238;21.104;2023-01-08T01:06:40;5.60;96.70
67161;DHT22;54088;52.238;21.104;2023-01-08T01:09:05;5.50;96.60
67161;DHT22;54088;52.238;21.104;2023-01-08T01:11:31;5.40;96.60
67161;DHT22;54088;52.238;21.104;2023-01-08T01:13:56;5.40;96.90
67161;DHT22;54088;52.238;21.104;2023-01-08T01:16:22;5.40;96.70
67161;DHT22;54088;52.238;21.104;2023-01-08T01:18:48;5.40;96.90
67161;DHT22;54088;52.238;21.104;2023-01-08T01:21:23;5.40;96.90
67161;DHT22;54088;52.238;21.104;2023-01-08T01:23:51;5.50;96.90
67161;DHT22;54088;52.238;21.104;2023-01-08T01:26:18;5.50;96.70
67161;DHT22;54088;52.238;21.104;2023-01-08T01:28:51;5.50;96.70
67161;DHT22;54088;52.238;21.104;2023-01-08T01:31:17;5.50;96.60
67161;DHT22;54088;52.238;21.104;2023-01-08T01:33:43;5.50;96.70
67161;DHT22;54088;52.238;21.104;2023-01-08T01:36:10;5.50;96.50
67161;DHT22;54088;52.238;21.104;2023-01-08T01:38:36;5.50;96.60
67161;DHT22;54088;52.238;21.104;2023-01-08T01:41:01;5.40;96.40
67161;DHT22;54088;52.238;21.104;2023-01-08T01:43:34;5.40;96.60
67161;DHT22;54088;52.238;21.104;2023-01-08T01:45:59;5.50;96.60
67161;DHT22;54088;52.238;21.104;2023-01-08T01:48:25;5.40;96.50
67161;DHT22;54088;52.238;21.104;2023-01-08T01:50:50;5.40;96.60
67161;DHT22;54088;52.238;21.104;2023-01-08T01:53:20;5.40;96.60
67161;DHT22;54088;52.238;21.104;2023-01-08T01:55:46;5.40;96.80
67161;DHT22;54088;52.238;21.104;2023-01-08T02:00:38;5.40;96.80
67161;DHT22;54088;52.238;21.104;2023-01-08T02:03:03;5.30;96.90
67161;DHT22;54088;52.238;21.104;2023-01-08T02:05:32;5.40;96.80
67161;DHT22;54088;52.238;21.104;2023-01-08T02:08:04;5.40;96.70
67161;DHT22;54088;52.238;21.104;2023-01-08T02:10:34;5.40;96.80
67161;DHT22;54088;52.238;21.104;2023-01-08T02:13:03;5.40;96.80
67161;DHT22;54088;52.238;21.104;2023-01-08T02:15:32;5.40;96.90
67161;DHT22;54088;52.238;21.104;2023-01-08T02:18:07;5.50;96.80
67161;DHT22;54088;52.238;21.104;2023-01-08T02:20:38;5.50;96.50
67161;DHT22;54088;52.238;21.104;2023-01-08T02:23:19;5.40;96.30
67161;DHT22;54088;52.238;21.104;2023-01-08T02:25:57;5.30;96.40
67161;DHT22;54088;52.238;21.104;2023-01-08T02:28:27;5.30;96.50
67161;DHT22;54088;52.238;21.104;2023-01-08T02:30:54;5.30;96.50
67161;DHT22;54088;52.238;21.104;2023-01-08T02:33:22;5.30;96.50
67161;DHT22;54088;52.238;21.104;2023-01-08T02:35:50;5.20;96.20
67161;DHT22;54088;52.238;21.104;2023-01-08T02:38:16;5.20;96.30
67161;DHT22;54088;52.238;21.104;2023-01-08T02:43:16;5.10;96.10
67161;DHT22;54088;52.238;21.104;2023-01-08T02:45:43;5.00;96.30
67161;DHT22;54088;52.238;21.104;2023-01-08T02:48:11;4.80;96.40
67161;DHT22;54088;52.238;21.104;2023-01-08T02:50:46;4.70;96.40
67161;DHT22;54088;52.238;21.104;2023-01-08T02:55:39;4.50;96.60
67161;DHT22;54088;52.238;21.104;2023-01-08T02:58:05;4.40;96.60
67161;DHT22;54088;52.238;21.104;2023-01-08T03:00:31;4.30;96.60
67161;DHT22;54088;52.238;21.104;2023-01-08T03:03:03;4.30;96.80
67161;DHT22;54088;52.238;21.104;2023-01-08T03:05:29;4.20;96.90
67161;DHT22;54088;52.238;21.104;2023-01-08T03:07:54;4.10;96.90
67161;DHT22;54088;52.238;21.104;2023-01-08T03:10:20;4.10;96.90
67161;DHT22;54088;52.238;21.104;2023-01-08T03:12:52;4.00;96.90
67161;DHT22;54088;52.238;21.104;2023-01-08T03:15:40;3.90;97.00
67161;DHT22;54088;52.238;21.104;2023-01-08T03:18:08;3.90;97.10
67161;DHT22;54088;52.238;21.104;2023-01-08T03:20:35;3.90;97.20
67161;DHT22;54088;52.238;21.104;2023-01-08T03:23:01;3.80;97.20
67161;DHT22;54088;52.238;21.104;2023-01-08T03:25:28;3.80;97.30
67161;DHT22;54088;52.238;21.104;2023-01-08T03:27:55;3.90;97.40
67161;DHT22;54088;52.238;21.104;2023-01-08T03:30:22;3.90;97.20
67161;DHT22;54088;52.238;21.104;2023-01-08T03:32:49;4.00;97.10
67161;DHT22;54088;52.238;21.104;2023-01-08T03:35:16;4.00;96.90
67161;DHT22;54088;52.238;21.104;2023-01-08T03:37:44;4.00;96.90
67161;DHT22;54088;52.238;21.104;2023-01-08T03:42:37;4.10;96.70
67161;DHT22;54088;52.238;21.104;2023-01-08T03:45:02;4.20;96.70
67161;DHT22;54088;52.238;21.104;2023-01-08T03:47:28;4.20;96.30
67161;DHT22;54088;52.238;21.104;2023-01-08T03:49:55;4.20;96.20
67161;DHT22;54088;52.238;21.104;2023-01-08T03:52:25;4.30;96.30
67161;DHT22;54088;52.238;21.104;2023-01-08T03:54:51;4.20;96.00
67161;DHT22;54088;52.238;21.104;2023-01-08T03:57:16;4.20;95.90
67161;DHT22;54088;52.238;21.104;2023-01-08T03:59:42;4.20;96.10
67161;DHT22;54088;52.238;21.104;2023-01-08T04:02:07;4.20;95.80
67161;DHT22;54088;52.238;21.104;2023-01-08T04:04:33;4.20;95.70
67161;DHT22;54088;52.238;21.104;2023-01-08T04:06:59;4.30;95.80
67161;DHT22;54088;52.238;21.104;2023-01-08T04:09:24;4.30;95.70
67161;DHT22;54088;52.238;21.104;2023-01-08T04:11:50;4.30;95.60
67161;DHT22;54088;52.238;21.104;2023-01-08T04:14:15;4.30;95.40
67161;DHT22;54088;52.238;21.104;2023-01-08T04:16:43;4.30;95.40
67161;DHT22;54088;52.238;21.104;2023-01-08T04:19:09;4.30;95.50
67161;DHT22;54088;52.238;21.104;2023-01-08T04:21:35;4.30;95.50
67161;DHT22;54088;52.238;21.104;2023-01-08T04:24:00;4.30;95.50
67161;DHT22;54088;52.238;21.104;2023-01-08T04:26:26;4.30;95.30
67161;DHT22;54088;52.238;21.104;2023-01-08T04:28:51;4.30;95.30
67161;DHT22;54088;52.238;21.104;2023-01-08T04:31:17;4.20;95.20
67161;DHT22;54088;52.238;21.104;2023-01-08T04:33:42;4.30;95.30
67161;DHT22;54088;52.238;21.104;2023-01-08T04:36:08;4.20;95.20
67161;DHT22;54088;52.238;21.104;2023-01-08T04:38:34;4.20;95.40
67161;DHT22;54088;52.238;21.104;2023-01-08T04:41:00;4.20;95.50
67161;DHT22;54088;52.238;21.104;2023-01-08T04:43:25;4.20;95.60
67161;DHT22;54088;52.238;21.104;2023-01-08T04:45:51;4.20;95.60
67161;DHT22;54088;52.238;21.104;2023-01-08T04:48:17;4.30;95.60
67161;DHT22;54088;52.238;21.104;2023-01-08T04:50:42;4.30;95.50
67161;DHT22;54088;52.238;21.104;2023-01-08T04:53:08;4.30;95.50
67161;DHT22;54088;52.238;21.104;2023-01-08T04:55:33;4.30;95.50
67161;DHT22;54088;52.238;21.104;2023-01-08T04:57:59;4.30;95.30
67161;DHT22;54088;52.238;21.104;2023-01-08T05:00:24;4.40;95.30
67161;DHT22;54088;52.238;21.104;2023-01-08T05:02:50;4.40;95.00
67161;DHT22;54088;52.238;21.104;2023-01-08T05:05:15;4.40;95.10
67161;DHT22;54088;52.238;21.104;2023-01-08T05:07:41;4.40;94.80
67161;DHT22;54088;52.238;21.104;2023-01-08T05:10:06;4.40;95.20
67161;DHT22;54088;52.238;21.104;2023-01-08T05:12:32;4.40;94.80
67161;DHT22;54088;52.238;21.104;2023-01-08T05:14:57;4.40;94.80
67161;DHT22;54088;52.238;21.104;2023-01-08T05:17:23;4.40;94.90
67161;DHT22;54088;52.238;21.104;2023-01-08T05:19:48;4.40;94.70
67161;DHT22;54088;52.238;21.104;2023-01-08T05:22:14;4.40;94.80
67161;DHT22;54088;52.238;21.104;2023-01-08T05:24:39;4.40;95.00
67161;DHT22;54088;52.238;21.104;2023-01-08T05:27:05;4.40;94.90
67161;DHT22;54088;52.238;21.104;2023-01-08T05:29:30;4.40;94.60
67161;DHT22;54088;52.238;21.104;2023-01-08T05:31:56;4.40;94.60
67161;DHT22;54088;52.238;21.104;2023-01-08T05:34:21;4.40;94.50
67161;DHT22;54088;52.238;21.104;2023-01-08T05:36:47;4.40;94.40
67161;DHT22;54088;52.238;21.104;2023-01-08T05:39:12;4.30;94.50
67161;DHT22;54088;52.238;21.104;2023-01-08T05:41:38;4.40;94.60
67161;DHT22;54088;52.238;21.104;2023-01-08T05:44:03;4.40;94.40
67161;DHT22;54088;52.238;21.104;2023-01-08T05:46:29;4.30;94.40
67161;DHT22;54088;52.238;21.104;2023-01-08T05:48:54;4.30;94.50
67161;DHT22;54088;52.238;21.104;2023-01-08T05:51:20;4.20;94.60
67161;DHT22;54088;52.238;21.104;2023-01-08T05:53:45;4.30;94.70
67161;DHT22;54088;52.238;21.104;2023-01-08T05:56:11;4.30;94.70
67161;DHT22;54088;52.238;21.104;2023-01-08T05:58:36;4.30;94.60
67161;DHT22;54088;52.238;21.104;2023-01-08T06:01:04;4.30;94.80
67161;DHT22;54088;52.238;21.104;2023-01-08T06:03:30;4.30;94.70
67161;DHT22;54088;52.238;21.104;2023-01-08T06:06:01;4.30;94.90
67161;DHT22;54088;52.238;21.104;2023-01-08T06:08:28;4.30;94.90
67161;DHT22;54088;52.238;21.104;2023-01-08T06:10:54;4.30;94.90
67161;DHT22;54088;52.238;21.104;2023-01-08T06:13:19;4.30;95.00
67161;DHT22;54088;52.238;21.104;2023-01-08T06:15:45;4.40;94.80
67161;DHT22;54088;52.238;21.104;2023-01-08T06:18:10;4.30;94.80
67161;DHT22;54088;52.238;21.104;2023-01-08T06:20:36;4.30;94.80
67161;DHT22;54088;52.238;21.104;2023-01-08T06:23:01;4.30;94.80
67161;DHT22;54088;52.238;21.104;2023-01-08T06:25:27;4.30;94.80
67161;DHT22;54088;52.238;21.104;2023-01-08T06:27:55;4.30;94.80
67161;DHT22;54088;52.238;21.104;2023-01-08T06:30:20;4.30;94.70
67161;DHT22;54088;52.238;21.104;2023-01-08T06:32:46;4.30;94.60
67161;DHT22;54088;52.238;21.104;2023-01-08T06:35:11;4.30;94.50
67161;DHT22;54088;52.238;21.104;2023-01-08T06:37:37;4.30;94.30
67161;DHT22;54088;52.238;21.104;2023-01-08T06:40:02;4.30;94.40
67161;DHT22;54088;52.238;21.104;2023-01-08T06:42:28;4.30;94.00
67161;DHT22;54088;52.238;21.104;2023-01-08T06:44:53;4.20;94.00
67161;DHT22;54088;52.238;21.104;2023-01-08T06:47:19;4.20;94.10
67161;DHT22;54088;52.238;21.104;2023-01-08T06:49:44;4.30;94.00
67161;DHT22;54088;52.238;21.104;2023-01-08T06:52:10;4.20;94.00
67161;DHT22;54088;52.238;21.104;2023-01-08T06:54:35;4.30;93.80
67161;DHT22;54088;52.238;21.104;2023-01-08T06:57:01;4.20;93.60
67161;DHT22;54088;52.238;21.104;2023-01-08T06:59:26;4.20;94.10
67161;DHT22;54088;52.238;21.104;2023-01-08T07:01:52;4.30;93.50
67161;DHT22;54088;52.238;21.104;2023-01-08T07:04:17;4.20;93.50
67161;DHT22;54088;52.238;21.104;2023-01-08T07:06:43;4.20;93.40
67161;DHT22;54088;52.238;21.104;2023-01-08T07:09:12;4.20;93.50
67161;DHT22;54088;52.238;21.104;2023-01-08T07:11:38;4.20;93.60
67161;DHT22;54088;52.238;21.104;2023-01-08T07:14:04;4.20;93.50
67161;DHT22;54088;52.238;21.104;2023-01-08T07:16:29;4.20;93.40
67161;DHT22;54088;52.238;21.104;2023-01-08T07:18:55;4.30;93.50
67161;DHT22;54088;52.238;21.104;2023-01-08T07:21:20;4.40;93.30
67161;DHT22;54088;52.238;21.104;2023-01-08T07:23:47;4.30;93.30
67161;DHT22;54088;52.238;21.104;2023-01-08T07:26:13;4.40;93.10
67161;DHT22;54088;52.238;21.104;2023-01-08T07:28:38;4.30;93.10
67161;DHT22;54088;52.238;21.104;2023-01-08T07:31:04;4.30;93.20
67161;DHT22;54088;52.238;21.104;2023-01-08T07:33:30;4.20;93.30
67161;DHT22;54088;52.238;21.104;2023-01-08T07:35:55;4.20;93.60
67161;DHT22;54088;52.238;21.104;2023-01-08T07:38:21;4.20;93.50
67161;DHT22;54088;52.238;21.104;2023-01-08T07:40:46;4.20;93.60
67161;DHT22;54088;52.238;21.104;2023-01-08T07:43:12;4.30;93.50
67161;DHT22;54088;52.238;21.104;2023-01-08T07:45:38;4.30;93.60
67161;DHT22;54088;52.238;21.104;2023-01-08T07:48:03;4.30;93.60
67161;DHT22;54088;52.238;21.104;2023-01-08T07:50:29;4.30;93.40
67161;DHT22;54088;52.238;21.104;2023-01-08T07:52:56;4.40;93.40
67161;DHT22;54088;52.238;21.104;2023-01-08T07:55:22;4.30;93.30
67161;DHT22;54088;52.238;21.104;2023-01-08T07:57:47;4.40;93.20
67161;DHT22;54088;52.238;21.104;2023-01-08T08:00:13;4.30;93.20
67161;DHT22;54088;52.238;21.104;2023-01-08T08:02:39;4.40;93.10
67161;DHT22;54088;52.238;21.104;2023-01-08T08:05:04;4.30;93.20
67161;DHT22;54088;52.238;21.104;2023-01-08T08:07:30;4.30;93.10
67161;DHT22;54088;52.238;21.104;2023-01-08T08:09:55;4.30;93.00
67161;DHT22;54088;52.238;21.104;2023-01-08T08:12:21;4.30;93.10
67161;DHT22;54088;52.238;21.104;2023-01-08T08:14:46;4.40;93.30
67161;DHT22;54088;52.238;21.104;2023-01-08T08:17:12;4.50;93.00
67161;DHT22;54088;52.238;21.104;2023-01-08T08:19:37;4.50;92.80
67161;DHT22;54088;52.238;21.104;2023-01-08T08:22:03;4.50;93.00
67161;DHT22;54088;52.238;21.104;2023-01-08T08:24:28;4.40;92.90
67161;DHT22;54088;52.238;21.104;2023-01-08T08:26:54;4.40;93.40
67161;DHT22;54088;52.238;21.104;2023-01-08T08:29:19;4.50;93.20
67161;DHT22;54088;52.238;21.104;2023-01-08T08:31:45;4.50;93.10
67161;DHT22;54088;52.238;21.104;2023-01-08T08:34:10;4.50;93.10
67161;DHT22;54088;52.238;21.104;2023-01-08T08:36:36;4.60;93.20
67161;DHT22;54088;52.238;21.104;2023-01-08T08:39:02;4.60;93.10
67161;DHT22;54088;52.238;21.104;2023-01-08T08:41:27;4.60;92.90
67161;DHT22;54088;52.238;21.104;2023-01-08T08:43:53;4.60;92.90
67161;DHT22;54088;52.238;21.104;2023-01-08T08:46:18;4.60;92.90
67161;DHT22;54088;52.238;21.104;2023-01-08T08:48:44;4.60;93.10
67161;DHT22;54088;52.238;21.104;2023-01-08T08:51:10;4.70;93.00
67161;DHT22;54088;52.238;21.104;2023-01-08T08:53:36;4.80;92.90
67161;DHT22;54088;52.238;21.104;2023-01-08T08:56:01;4.80;92.60
67161;DHT22;54088;52.238;21.104;2023-01-08T08:58:27;4.80;92.50
67161;DHT22;54088;52.238;21.104;2023-01-08T09:00:52;4.80;92.50
67161;DHT22;54088;52.238;21.104;2023-01-08T09:03:18;4.90;92.20
67161;DHT22;54088;52.238;21.104;2023-01-08T09:05:43;4.90;92.00
67161;DHT22;54088;52.238;21.104;2023-01-08T09:08:09;4.80;92.00
67161;DHT22;54088;52.238;21.104;2023-01-08T09:10:35;4.80;92.40
67161;DHT22;54088;52.238;21.104;2023-01-08T09:13:01;4.80;92.40
67161;DHT22;54088;52.238;21.104;2023-01-08T09:15:27;4.90;92.30
67161;DHT22;54088;52.238;21.104;2023-01-08T09:17:53;4.90;92.10
67161;DHT22;54088;52.238;21.104;2023-01-08T09:20:19;4.90;92.20
67161;DHT22;54088;52.238;21.104;2023-01-08T09:22:45;5.00;92.30
67161;DHT22;54088;52.238;21.104;2023-01-08T09:25:10;4.90;91.90
67161;DHT22;54088;52.238;21.104;2023-01-08T09:27:36;5.00;92.10
67161;DHT22;54088;52.238;21.104;2023-01-08T09:30:02;5.20;92.00
67161;DHT22;54088;52.238;21.104;2023-01-08T09:32:27;5.30;91.80
67161;DHT22;54088;52.238;21.104;2023-01-08T09:34:53;5.40;91.70
67161;DHT22;54088;52.238;21.104;2023-01-08T09:37:18;5.30;91.20
67161;DHT22;54088;52.238;21.104;2023-01-08T09:39:44;5.40;91.50
67161;DHT22;54088;52.238;21.104;2023-01-08T09:42:09;5.40;91.50
67161;DHT22;54088;52.238;21.104;2023-01-08T09:44:37;5.40;91.00
67161;DHT22;54088;52.238;21.104;2023-01-08T09:47:03;5.30;91.30
67161;DHT22;54088;52.238;21.104;2023-01-08T09:49:39;5.40;91.30
67161;DHT22;54088;52.238;21.104;2023-01-08T09:52:09;5.40;91.30
67161;DHT22;54088;52.238;21.104;2023-01-08T09:54:36;5.50;91.30
67161;DHT22;54088;52.238;21.104;2023-01-08T09:57:01;5.60;91.20
67161;DHT22;54088;52.238;21.104;2023-01-08T09:59:27;5.70;90.90
67161;DHT22;54088;52.238;21.104;2023-01-08T10:01:53;5.70;90.60
67161;DHT22;54088;52.238;21.104;2023-01-08T10:04:22;5.80;90.80
67161;DHT22;54088;52.238;21.104;2023-01-08T10:09:32;5.90;90.30
67161;DHT22;54088;52.238;21.104;2023-01-08T10:12:01;5.80;90.30
67161;DHT22;54088;52.238;21.104;2023-01-08T10:14:28;5.70;90.30
67161;DHT22;54088;52.238;21.104;2023-01-08T10:16:55;5.70;90.40
67161;DHT22;54088;52.238;21.104;2023-01-08T10:19:22;5.80;90.50
67161;DHT22;54088;52.238;21.104;2023-01-08T10:21:48;5.90;90.50
67161;DHT22;54088;52.238;21.104;2023-01-08T10:24:14;6.10;90.10
67161;DHT22;54088;52.238;21.104;2023-01-08T10:26:39;6.10;89.90
67161;DHT22;54088;52.238;21.104;2023-01-08T10:29:06;6.10;89.10
67161;DHT22;54088;52.238;21.104;2023-01-08T10:31:32;5.90;88.70
67161;DHT22;54088;52.238;21.104;2023-01-08T10:34:05;5.90;89.10
67161;DHT22;54088;52.238;21.104;2023-01-08T10:36:36;5.90;88.60
67161;DHT22;54088;52.238;21.104;2023-01-08T10:39:03;5.80;88.90
67161;DHT22;54088;52.238;21.104;2023-01-08T10:41:29;5.70;88.70
67161;DHT22;54088;52.238;21.104;2023-01-08T10:46:31;5.70;89.70
67161;DHT22;54088;52.238;21.104;2023-01-08T10:48:57;5.70;89.20
67161;DHT22;54088;52.238;21.104;2023-01-08T10:51:24;5.60;89.00
67161;DHT22;54088;52.238;21.104;2023-01-08T10:53:51;5.60;89.60
67161;DHT22;54088;52.238;21.104;2023-01-08T10:58:46;5.50;89.70
67161;DHT22;54088;52.238;21.104;2023-01-08T11:01:21;5.50;89.70
67161;DHT22;54088;52.238;21.104;2023-01-08T11:03:51;5.40;89.80
67161;DHT22;54088;52.238;21.104;2023-01-08T11:06:26;5.40;89.30
67161;DHT22;54088;52.238;21.104;2023-01-08T11:08:54;5.40;89.80
67161;DHT22;54088;52.238;21.104;2023-01-08T11:11:21;5.30;89.50
67161;DHT22;54088;52.238;21.104;2023-01-08T11:13:59;5.30;89.40
67161;DHT22;54088;52.238;21.104;2023-01-08T11:16:33;5.30;89.00
67161;DHT22;54088;52.238;21.104;2023-01-08T11:18:59;5.40;89.20
67161;DHT22;54088;52.238;21.104;2023-01-08T11:21:26;5.40;89.10
67161;DHT22;54088;52.238;21.104;2023-01-08T11:24:14;5.40;89.60
67161;DHT22;54088;52.238;21.104;2023-01-08T11:26:47;5.40;89.00
67161;DHT22;54088;52.238;21.104;2023-01-08T11:29:16;5.50;89.40
67161;DHT22;54088;52.238;21.104;2023-01-08T11:31:45;5.60;89.30
67161;DHT22;54088;52.238;21.104;2023-01-08T11:34:15;5.60;88.70
67161;DHT22;54088;52.238;21.104;2023-01-08T11:37:23;5.60;88.80
67161;DHT22;54088;52.238;21.104;2023-01-08T11:39:36;5.60;88.80
67161;DHT22;54088;52.238;21.104;2023-01-08T11:44:32;5.70;88.10
67161;DHT22;54088;52.238;21.104;2023-01-08T11:47:02;5.70;88.40
67161;DHT22;54088;52.238;21.104;2023-01-08T12:06:46;5.20;88.90
67161;DHT22;54088;52.238;21.104;2023-01-08T12:09:18;5.20;89.10
67161;DHT22;54088;52.238;21.104;2023-01-08T12:11:49;5.20;89.20
67161;DHT22;54088;52.238;21.104;2023-01-08T12:22:28;5.30;89.20
67161;DHT22;54088;52.238;21.104;2023-01-08T12:25:17;5.30;88.80
67161;DHT22;54088;52.238;21.104;2023-01-08T12:32:42;5.20;89.00
67161;DHT22;54088;52.238;21.104;2023-01-08T12:40:11;5.30;89.40
67161;DHT22;54088;52.238;21.104;2023-01-08T12:42:38;5.30;89.30
67161;DHT22;54088;52.238;21.104;2023-01-08T12:45:05;5.30;89.00
67161;DHT22;54088;52.238;21.104;2023-01-08T12:47:32;5.20;88.90
67161;DHT22;54088;52.238;21.104;2023-01-08T12:50:15;5.20;89.20
67161;DHT22;54088;52.238;21.104;2023-01-08T12:52:46;5.20;89.60
67161;DHT22;54088;52.238;21.104;2023-01-08T12:57:47;5.10;89.70
67161;DHT22;54088;52.238;21.104;2023-01-08T13:05:33;5.20;89.80
67161;DHT22;54088;52.238;21.104;2023-01-08T13:07:59;5.10;89.70
67161;DHT22;54088;52.238;21.104;2023-01-08T13:11:07;5.00;90.00
67161;DHT22;54088;52.238;21.104;2023-01-08T13:15:48;5.00;90.10
67161;DHT22;54088;52.238;21.104;2023-01-08T13:18:15;4.90;90.10
67161;DHT22;54088;52.238;21.104;2023-01-08T13:20:41;4.80;90.20
67161;DHT22;54088;52.238;21.104;2023-01-08T13:23:20;4.80;90.30
67161;DHT22;54088;52.238;21.104;2023-01-08T13:25:54;4.80;90.40
67161;DHT22;54088;52.238;21.104;2023-01-08T13:31:08;4.80;90.40
67161;DHT22;54088;52.238;21.104;2023-01-08T13:38:40;4.60;90.80
67161;DHT22;54088;52.238;21.104;2023-01-08T13:41:22;4.60;90.80
67161;DHT22;54088;52.238;21.104;2023-01-08T13:43:48;4.50;91.00
67161;DHT22;54088;52.238;21.104;2023-01-08T13:46:17;4.50;91.30
67161;DHT22;54088;52.238;21.104;2023-01-08T13:48:47;4.40;91.40
67161;DHT22;54088;52.238;21.104;2023-01-08T13:53:54;4.40;91.60
67161;DHT22;54088;52.238;21.104;2023-01-08T13:56:19;4.50;91.60
67161;DHT22;54088;52.238;21.104;2023-01-08T13:58:49;4.50;91.60
67161;DHT22;54088;52.238;21.104;2023-01-08T14:01:16;4.40;91.80
67161;DHT22;54088;52.238;21.104;2023-01-08T14:03:46;4.40;91.80
67161;DHT22;54088;52.238;21.104;2023-01-08T14:08:47;4.30;92.00
67161;DHT22;54088;52.238;21.104;2023-01-08T14:11:13;4.40;92.20
67161;DHT22;54088;52.238;21.104;2023-01-08T14:13:39;4.50;92.00
67161;DHT22;54088;52.238;21.104;2023-01-08T14:16:09;4.40;92.10
67161;DHT22;54088;52.238;21.104;2023-01-08T14:18:38;4.40;92.10
67161;DHT22;54088;52.238;21.104;2023-01-08T14:21:04;4.50;92.10
67161;DHT22;54088;52.238;21.104;2023-01-08T14:23:36;4.50;92.10
67161;DHT22;54088;52.238;21.104;2023-01-08T14:26:05;4.40;92.10
67161;DHT22;54088;52.238;21.104;2023-01-08T14:28:33;4.40;92.30
67161;DHT22;54088;52.238;21.104;2023-01-08T14:30:58;4.30;92.30
67161;DHT22;54088;52.238;21.104;2023-01-08T14:33:33;4.30;92.40
67161;DHT22;54088;52.238;21.104;2023-01-08T14:36:00;4.40;92.50
67161;DHT22;54088;52.238;21.104;2023-01-08T14:38:26;4.40;92.40
67161;DHT22;54088;52.238;21.104;2023-01-08T14:41:05;4.30;92.50
67161;DHT22;54088;52.238;21.104;2023-01-08T14:43:32;4.20;92.60
67161;DHT22;54088;52.238;21.104;2023-01-08T14:45:59;4.20;92.80
67161;DHT22;54088;52.238;21.104;2023-01-08T14:48:34;4.20;92.70
67161;DHT22;54088;52.238;21.104;2023-01-08T14:51:06;4.20;92.80
67161;DHT22;54088;52.238;21.104;2023-01-08T14:53:33;4.20;92.70
67161;DHT22;54088;52.238;21.104;2023-01-08T14:55:59;4.20;92.80
67161;DHT22;54088;52.238;21.104;2023-01-08T14:58:27;4.20;92.70
67161;DHT22;54088;52.238;21.104;2023-01-08T15:00:56;4.20;92.70
67161;DHT22;54088;52.238;21.104;2023-01-08T15:05:57;4.20;92.70
67161;DHT22;54088;52.238;21.104;2023-01-08T15:08:31;4.20;92.70
67161;DHT22;54088;52.238;21.104;2023-01-08T15:10:57;4.20;92.80
67161;DHT22;54088;52.238;21.104;2023-01-08T15:13:24;4.20;92.80
67161;DHT22;54088;52.238;21.104;2023-01-08T15:15:58;4.20;92.70
67161;DHT22;54088;52.238;21.104;2023-01-08T15:18:25;4.10;92.70
67161;DHT22;54088;52.238;21.104;2023-01-08T15:20:50;4.10;92.90
67161;DHT22;54088;52.238;21.104;2023-01-08T15:23:24;4.20;92.80
67161;DHT22;54088;52.238;21.104;2023-01-08T15:25:50;4.10;92.70
67161;DHT22;54088;52.238;21.104;2023-01-08T15:28:16;4.20;92.60
67161;DHT22;54088;52.238;21.104;2023-01-08T15:30:46;4.10;92.60
67161;DHT22;54088;52.238;21.104;2023-01-08T15:33:17;4.10;92.60
67161;DHT22;54088;52.238;21.104;2023-01-08T15:35:43;4.10;92.60
67161;DHT22;54088;52.238;21.104;2023-01-08T15:38:10;4.20;92.80
67161;DHT22;54088;52.238;21.104;2023-01-08T15:40:36;4.10;92.50
67161;DHT22;54088;52.238;21.104;2023-01-08T15:43:01;4.10;92.50
67161;DHT22;54088;52.238;21.104;2023-01-08T15:45:36;4.10;92.60
67161;DHT22;54088;52.238;21.104;2023-01-08T15:48:03;4.20;92.50
67161;DHT22;54088;52.238;21.104;2023-01-08T15:50:28;4.20;92.50
67161;DHT22;54088;52.238;21.104;2023-01-08T15:52:57;4.20;92.50
67161;DHT22;54088;52.238;21.104;2023-01-08T15:55:23;4.20;92.50
67161;DHT22;54088;52.238;21.104;2023-01-08T15:57:49;4.20;92.30
67161;DHT22;54088;52.238;21.104;2023-01-08T16:00:15;4.20;92.40
67161;DHT22;54088;52.238;21.104;2023-01-08T16:02:51;4.20;92.30
67161;DHT22;54088;52.238;21.104;2023-01-08T16:05:17;4.20;92.30
67161;DHT22;54088;52.238;21.104;2023-01-08T16:07:43;4.10;92.20
67161;DHT22;54088;52.238;21.104;2023-01-08T16:10:14;4.10;92.50
67161;DHT22;54088;52.238;21.104;2023-01-08T16:12:40;4.10;92.60
67161;DHT22;54088;52.238;21.104;2023-01-08T16:15:08;4.10;92.60
67161;DHT22;54088;52.238;21.104;2023-01-08T16:17:34;4.10;92.50
67161;DHT22;54088;52.238;21.104;2023-01-08T16:20:01;4.10;92.50
67161;DHT22;54088;52.238;21.104;2023-01-08T16:22:26;4.10;92.50
67161;DHT22;54088;52.238;21.104;2023-01-08T16:24:52;4.10;92.40
67161;DHT22;54088;52.238;21.104;2023-01-08T16:27:17;4.10;92.40
67161;DHT22;54088;52.238;21.104;2023-01-08T16:29:43;4.10;92.70
67161;DHT22;54088;52.238;21.104;2023-01-08T16:32:08;4.10;92.50
67161;DHT22;54088;52.238;21.104;2023-01-08T16:34:34;4.10;92.50
67161;DHT22;54088;52.238;21.104;2023-01-08T16:37:00;4.10;92.60
67161;DHT22;54088;52.238;21.104;2023-01-08T16:39:25;4.10;92.50
67161;DHT22;54088;52.238;21.104;2023-01-08T16:41:51;4.10;92.50
67161;DHT22;54088;52.238;21.104;2023-01-08T16:44:18;4.10;92.40
67161;DHT22;54088;52.238;21.104;2023-01-08T16:46:44;4.10;92.40
67161;DHT22;54088;52.238;21.104;2023-01-08T16:49:10;4.10;92.50
67161;DHT22;54088;52.238;21.104;2023-01-08T16:51:35;4.10;92.50